sensor_id;sensor_type;location;lat;lon;timestamp;temperature;humidity
41985;DHT22;28319;48.116;10.818;2023-07-29T00:04:51;17.90;99.90
41985;DHT22;28319;48.116;10.818;2023-07-29T00:09:55;17.90;99.90
41985;DHT22;28319;48.116;10.818;2023-07-29T00:14:57;17.90;99.90
41985;DHT22;28319;48.116;10.818;2023-07-29T00:19:59;17.90;99.90
41985;DHT22;28319;48.116;10.818;2023-07-29T00:25:02;17.80;99.90
41985;DHT22;28319;48.116;10.818;2023-07-29T00:30:06;17.80;99.90
41985;DHT22;28319;48.116;10.818;2023-07-29T00:35:09;17.70;99.90
41985;DHT22;28319;48.116;10.818;2023-07-29T00:40:15;17.70;99.90
41985;DHT22;28319;48.116;10.818;2023-07-29T00:45:21;17.60;99.90
41985;DHT22;28319;48.116;10.818;2023-07-29T00:50:23;17.60;99.90
41985;DHT22;28319;48.116;10.818;2023-07-29T00:55:28;17.60;99.90
41985;DHT22;28319;48.116;10.818;2023-07-29T01:00:30;17.50;99.90
41985;DHT22;28319;48.116;10.818;2023-07-29T01:05:40;17.40;99.90
41985;DHT22;28319;48.116;10.818;2023-07-29T01:10:53;17.40;99.90
41985;DHT22;28319;48.116;10.818;2023-07-29T01:16:01;17.30;99.90
41985;DHT22;28319;48.116;10.818;2023-07-29T01:21:05;17.40;99.90
41985;DHT22;28319;48.116;10.818;2023-07-29T01:26:09;17.40;99.90
41985;DHT22;28319;48.116;10.818;2023-07-29T01:31:16;17.30;99.90
41985;DHT22;28319;48.116;10.818;2023-07-29T01:36:22;17.20;99.90
41985;DHT22;28319;48.116;10.818;2023-07-29T01:41:27;17.20;99.90
41985;DHT22;28319;48.116;10.818;2023-07-29T01:46:29;17.20;99.90
41985;DHT22;28319;48.116;10.818;2023-07-29T01:51:33;17.20;99.90
41985;DHT22;28319;48.116;10.818;2023-07-29T01:56:37;17.20;99.90
41985;DHT22;28319;48.116;10.818;2023-07-29T02:01:39;17.20;99.90
41985;DHT22;28319;48.116;10.818;2023-07-29T02:06:41;17.20;99.90
41985;DHT22;28319;48.116;10.818;2023-07-29T02:11:45;17.10;99.90
41985;DHT22;28319;48.116;10.818;2023-07-29T02:16:46;17.00;99.90
41985;DHT22;28319;48.116;10.818;2023-07-29T02:21:48;16.90;99.90
41985;DHT22;28319;48.116;10.818;2023-07-29T02:26:52;16.90;99.90
41985;DHT22;28319;48.116;10.818;2023-07-29T02:31:54;16.90;99.90
41985;DHT22;28319;48.116;10.818;2023-07-29T02:36:56;16.90;99.90
41985;DHT22;28319;48.116;10.818;2023-07-29T02:42:00;16.80;99.90
41985;DHT22;28319;48.116;10.818;2023-07-29T02:47:02;16.80;99.90
41985;DHT22;28319;48.116;10.818;2023-07-29T02:52:05;16.70;99.90
41985;DHT22;28319;48.116;10.818;2023-07-29T02:57:08;16.70;99.90
41985;DHT22;28319;48.116;10.818;2023-07-29T03:02:10;16.60;99.90
41985;DHT22;28319;48.116;10.818;2023-07-29T03:07:12;16.60;99.90
41985;DHT22;28319;48.116;10.818;2023-07-29T03:12:16;16.60;99.90
41985;DHT22;28319;48.116;10.818;2023-07-29T03:17:18;16.60;99.90
41985;DHT22;28319;48.116;10.818;2023-07-29T03:22:19;16.60;99.90
41985;DHT22;28319;48.116;10.818;2023-07-29T03:27:23;16.70;99.90
41985;DHT22;28319;48.116;10.818;2023-07-29T03:32:25;16.80;99.90
41985;DHT22;28319;48.116;10.818;2023-07-29T03:37:30;16.70;99.90
41985;DHT22;28319;48.116;10.818;2023-07-29T03:42:33;16.70;99.90
41985;DHT22;28319;48.116;10.818;2023-07-29T03:47:36;16.70;99.90
41985;DHT22;28319;48.116;10.818;2023-07-29T03:52:38;16.70;99.90
41985;DHT22;28319;48.116;10.818;2023-07-29T03:57:41;16.60;99.90
41985;DHT22;28319;48.116;10.818;2023-07-29T04:02:43;16.60;99.90
41985;DHT22;28319;48.116;10.818;2023-07-29T04:07:46;16.60;99.90
41985;DHT22;28319;48.116;10.818;2023-07-29T04:12:49;16.60;99.90
41985;DHT22;28319;48.116;10.818;2023-07-29T04:17:51;16.50;99.90
41985;DHT22;28319;48.116;10.818;2023-07-29T04:22:53;16.60;99.90
41985;DHT22;28319;48.116;10.818;2023-07-29T04:27:57;16.60;99.90
41985;DHT22;28319;48.116;10.818;2023-07-29T04:32:59;16.70;99.90
41985;DHT22;28319;48.116;10.818;2023-07-29T04:38:00;16.70;99.90
41985;DHT22;28319;48.116;10.818;2023-07-29T04:43:04;16.80;99.90
41985;DHT22;28319;48.116;10.818;2023-07-29T04:48:06;16.90;99.90
41985;DHT22;28319;48.116;10.818;2023-07-29T04:53:08;16.90;99.90
41985;DHT22;28319;48.116;10.818;2023-07-29T04:58:13;16.90;99.90
41985;DHT22;28319;48.116;10.818;2023-07-29T05:03:15;16.90;99.90
41985;DHT22;28319;48.116;10.818;2023-07-29T05:08:17;17.00;99.90
41985;DHT22;28319;48.116;10.818;2023-07-29T05:13:20;16.90;99.90
41985;DHT22;28319;48.116;10.818;2023-07-29T05:18:22;16.90;99.90
41985;DHT22;28319;48.116;10.818;2023-07-29T05:23:25;16.90;99.90
41985;DHT22;28319;48.116;10.818;2023-07-29T05:28:28;17.00;99.90
41985;DHT22;28319;48.116;10.818;2023-07-29T05:33:30;17.10;99.90
41985;DHT22;28319;48.116;10.818;2023-07-29T05:38:32;17.10;99.90
41985;DHT22;28319;48.116;10.818;2023-07-29T05:43:36;17.10;99.90
41985;DHT22;28319;48.116;10.818;2023-07-29T05:48:39;17.20;99.90
41985;DHT22;28319;48.116;10.818;2023-07-29T05:53:41;17.30;99.90
41985;DHT22;28319;48.116;10.818;2023-07-29T05:58:44;17.40;99.90
41985;DHT22;28319;48.116;10.818;2023-07-29T06:03:46;17.30;99.90
41985;DHT22;28319;48.116;10.818;2023-07-29T06:08:48;17.20;99.90
41985;DHT22;28319;48.116;10.818;2023-07-29T06:13:52;17.20;99.90
41985;DHT22;28319;48.116;10.818;2023-07-29T06:18:54;17.10;99.90
41985;DHT22;28319;48.116;10.818;2023-07-29T06:23:56;17.10;99.90
41985;DHT22;28319;48.116;10.818;2023-07-29T06:28:59;17.10;99.90
41985;DHT22;28319;48.116;10.818;2023-07-29T06:34:01;17.10;99.90
41985;DHT22;28319;48.116;10.818;2023-07-29T06:39:03;17.10;99.90
41985;DHT22;28319;48.116;10.818;2023-07-29T06:44:07;17.10;99.90
41985;DHT22;28319;48.116;10.818;2023-07-29T06:49:09;17.10;99.90
41985;DHT22;28319;48.116;10.818;2023-07-29T06:54:11;17.10;99.90
41985;DHT22;28319;48.116;10.818;2023-07-29T06:59:15;17.10;99.90
41985;DHT22;28319;48.116;10.818;2023-07-29T07:04:17;17.20;99.90
41985;DHT22;28319;48.116;10.818;2023-07-29T07:09:19;17.30;99.90
41985;DHT22;28319;48.116;10.818;2023-07-29T07:14:23;17.50;99.90
41985;DHT22;28319;48.116;10.818;2023-07-29T07:19:25;17.70;99.90
41985;DHT22;28319;48.116;10.818;2023-07-29T07:24:27;17.90;99.90
41985;DHT22;28319;48.116;10.818;2023-07-29T07:29:30;18.00;99.90
41985;DHT22;28319;48.116;10.818;2023-07-29T07:34:32;18.00;99.90
41985;DHT22;28319;48.116;10.818;2023-07-29T07:39:35;18.20;99.90
41985;DHT22;28319;48.116;10.818;2023-07-29T07:44:38;18.30;99.90
41985;DHT22;28319;48.116;10.818;2023-07-29T07:49:40;18.50;99.90
41985;DHT22;28319;48.116;10.818;2023-07-29T07:54:42;18.60;99.90
41985;DHT22;28319;48.116;10.818;2023-07-29T07:59:45;18.70;99.90
41985;DHT22;28319;48.116;10.818;2023-07-29T08:04:47;18.80;99.90
41985;DHT22;28319;48.116;10.818;2023-07-29T08:09:49;18.90;99.90
41985;DHT22;28319;48.116;10.818;2023-07-29T08:14:53;19.00;99.90
41985;DHT22;28319;48.116;10.818;2023-07-29T08:19:54;19.10;99.90
41985;DHT22;28319;48.116;10.818;2023-07-29T08:24:57;19.30;99.90
41985;DHT22;28319;48.116;10.818;2023-07-29T08:30:01;19.40;99.90
41985;DHT22;28319;48.116;10.818;2023-07-29T08:35:03;19.40;99.90
41985;DHT22;28319;48.116;10.818;2023-07-29T08:40:06;19.60;99.90
41985;DHT22;28319;48.116;10.818;2023-07-29T08:45:10;19.80;99.90
41985;DHT22;28319;48.116;10.818;2023-07-29T08:50:13;19.90;99.90
41985;DHT22;28319;48.116;10.818;2023-07-29T08:55:16;20.10;99.90
41985;DHT22;28319;48.116;10.818;2023-07-29T09:00:20;20.30;99.90
41985;DHT22;28319;48.116;10.818;2023-07-29T09:05:22;20.50;99.90
41985;DHT22;28319;48.116;10.818;2023-07-29T09:10:25;20.80;99.90
41985;DHT22;28319;48.116;10.818;2023-07-29T09:15:30;21.00;99.90
41985;DHT22;28319;48.116;10.818;2023-07-29T09:20:34;21.30;99.90
41985;DHT22;28319;48.116;10.818;2023-07-29T09:25:36;21.50;99.90
41985;DHT22;28319;48.116;10.818;2023-07-29T09:30:40;21.60;99.90
41985;DHT22;28319;48.116;10.818;2023-07-29T09:35:44;21.80;99.90
41985;DHT22;28319;48.116;10.818;2023-07-29T09:40:46;21.90;99.90
41985;DHT22;28319;48.116;10.818;2023-07-29T09:45:52;22.20;99.90
41985;DHT22;28319;48.116;10.818;2023-07-29T09:50:54;22.60;99.90
41985;DHT22;28319;48.116;10.818;2023-07-29T09:55:56;22.80;99.90
41985;DHT22;28319;48.116;10.818;2023-07-29T10:00:59;23.00;99.90
41985;DHT22;28319;48.116;10.818;2023-07-29T10:06:02;23.00;99.90
41985;DHT22;28319;48.116;10.818;2023-07-29T10:11:05;23.40;99.90
41985;DHT22;28319;48.116;10.818;2023-07-29T10:16:11;23.30;99.90
41985;DHT22;28319;48.116;10.818;2023-07-29T10:21:14;23.70;99.90
41985;DHT22;28319;48.116;10.818;2023-07-29T10:26:18;23.70;99.90
41985;DHT22;28319;48.116;10.818;2023-07-29T10:31:22;24.00;99.90
41985;DHT22;28319;48.116;10.818;2023-07-29T10:36:26;24.40;99.90
41985;DHT22;28319;48.116;10.818;2023-07-29T10:41:59;24.30;99.90
41985;DHT22;28319;48.116;10.818;2023-07-29T10:47:11;24.40;99.90
41985;DHT22;28319;48.116;10.818;2023-07-29T10:52:14;24.40;99.90
41985;DHT22;28319;48.116;10.818;2023-07-29T10:57:30;24.70;99.90
41985;DHT22;28319;48.116;10.818;2023-07-29T11:02:35;25.00;99.90
41985;DHT22;28319;48.116;10.818;2023-07-29T11:07:45;25.40;99.90
41985;DHT22;28319;48.116;10.818;2023-07-29T11:12:48;25.10;99.90
41985;DHT22;28319;48.116;10.818;2023-07-29T11:17:54;24.60;99.90
41985;DHT22;28319;48.116;10.818;2023-07-29T11:22:58;24.80;99.90
41985;DHT22;28319;48.116;10.818;2023-07-29T11:28:00;25.20;99.90
41985;DHT22;28319;48.116;10.818;2023-07-29T11:33:04;25.30;99.90
41985;DHT22;28319;48.116;10.818;2023-07-29T11:38:06;25.20;99.60
41985;DHT22;28319;48.116;10.818;2023-07-29T11:43:08;25.30;99.90
41985;DHT22;28319;48.116;10.818;2023-07-29T11:48:12;25.60;99.20
41985;DHT22;28319;48.116;10.818;2023-07-29T11:53:15;25.90;98.20
41985;DHT22;28319;48.116;10.818;2023-07-29T11:58:17;25.40;98.60
41985;DHT22;28319;48.116;10.818;2023-07-29T12:03:21;25.80;99.60
41985;DHT22;28319;48.116;10.818;2023-07-29T12:08:24;26.00;98.80
41985;DHT22;28319;48.116;10.818;2023-07-29T12:13:26;25.80;99.10
41985;DHT22;28319;48.116;10.818;2023-07-29T12:18:32;26.00;99.90
41985;DHT22;28319;48.116;10.818;2023-07-29T12:23:35;25.20;99.90
41985;DHT22;28319;48.116;10.818;2023-07-29T12:28:37;21.10;99.90
41985;DHT22;28319;48.116;10.818;2023-07-29T12:33:41;21.70;99.90
41985;DHT22;28319;48.116;10.818;2023-07-29T12:38:43;22.30;99.90
41985;DHT22;28319;48.116;10.818;2023-07-29T12:43:46;22.30;99.90
41985;DHT22;28319;48.116;10.818;2023-07-29T12:48:50;22.40;99.90
41985;DHT22;28319;48.116;10.818;2023-07-29T12:53:53;21.90;99.90
41985;DHT22;28319;48.116;10.818;2023-07-29T12:58:55;20.10;99.90
41985;DHT22;28319;48.116;10.818;2023-07-29T13:03:58;20.30;99.90
41985;DHT22;28319;48.116;10.818;2023-07-29T13:09:00;20.30;99.90
41985;DHT22;28319;48.116;10.818;2023-07-29T13:14:03;20.70;99.90
41985;DHT22;28319;48.116;10.818;2023-07-29T13:19:08;20.60;99.90
41985;DHT22;28319;48.116;10.818;2023-07-29T13:24:12;20.70;99.90
41985;DHT22;28319;48.116;10.818;2023-07-29T13:29:14;21.10;99.90
41985;DHT22;28319;48.116;10.818;2023-07-29T13:34:17;21.30;99.90
41985;DHT22;28319;48.116;10.818;2023-07-29T13:39:19;21.40;99.90
41985;DHT22;28319;48.116;10.818;2023-07-29T13:44:21;21.60;99.90
41985;DHT22;28319;48.116;10.818;2023-07-29T13:49:25;21.50;99.90
41985;DHT22;28319;48.116;10.818;2023-07-29T13:54:27;21.40;99.90
41985;DHT22;28319;48.116;10.818;2023-07-29T13:59:29;21.30;99.90
41985;DHT22;28319;48.116;10.818;2023-07-29T14:04:33;21.10;99.90
41985;DHT22;28319;48.116;10.818;2023-07-29T14:09:35;20.90;99.90
41985;DHT22;28319;48.116;10.818;2023-07-29T14:14:38;20.90;99.90
41985;DHT22;28319;48.116;10.818;2023-07-29T14:19:42;20.70;99.90
41985;DHT22;28319;48.116;10.818;2023-07-29T14:24:46;20.60;99.90
41985;DHT22;28319;48.116;10.818;2023-07-29T14:29:48;20.60;99.90
41985;DHT22;28319;48.116;10.818;2023-07-29T14:34:51;20.50;99.90
41985;DHT22;28319;48.116;10.818;2023-07-29T14:39:53;20.50;99.90
41985;DHT22;28319;48.116;10.818;2023-07-29T14:44:55;20.20;99.90
41985;DHT22;28319;48.116;10.818;2023-07-29T14:49:59;20.10;99.90
41985;DHT22;28319;48.116;10.818;2023-07-29T14:55:01;19.80;99.90
41985;DHT22;28319;48.116;10.818;2023-07-29T15:00:04;19.90;99.90
41985;DHT22;28319;48.116;10.818;2023-07-29T15:05:08;19.80;99.90
41985;DHT22;28319;48.116;10.818;2023-07-29T15:10:10;20.00;99.90
41985;DHT22;28319;48.116;10.818;2023-07-29T15:15:12;20.10;99.90
41985;DHT22;28319;48.116;10.818;2023-07-29T15:20:16;20.10;99.90
41985;DHT22;28319;48.116;10.818;2023-07-29T15:25:18;20.10;99.90
41985;DHT22;28319;48.116;10.818;2023-07-29T15:30:20;20.10;99.90
41985;DHT22;28319;48.116;10.818;2023-07-29T15:35:24;20.10;99.90
41985;DHT22;28319;48.116;10.818;2023-07-29T15:40:26;20.10;99.90
41985;DHT22;28319;48.116;10.818;2023-07-29T15:45:28;20.10;99.90
41985;DHT22;28319;48.116;10.818;2023-07-29T15:50:32;20.30;99.90
41985;DHT22;28319;48.116;10.818;2023-07-29T15:55:34;20.40;99.90
41985;DHT22;28319;48.116;10.818;2023-07-29T16:00:36;20.50;99.90
41985;DHT22;28319;48.116;10.818;2023-07-29T16:05:40;20.50;99.90
41985;DHT22;28319;48.116;10.818;2023-07-29T16:10:42;20.50;99.90
41985;DHT22;28319;48.116;10.818;2023-07-29T16:15:44;20.40;99.90
41985;DHT22;28319;48.116;10.818;2023-07-29T16:20:48;20.20;99.90
41985;DHT22;28319;48.116;10.818;2023-07-29T16:25:50;20.20;99.90
41985;DHT22;28319;48.116;10.818;2023-07-29T16:30:52;20.20;99.90
41985;DHT22;28319;48.116;10.818;2023-07-29T16:35:56;20.20;99.90
41985;DHT22;28319;48.116;10.818;2023-07-29T16:40:58;20.30;99.90
41985;DHT22;28319;48.116;10.818;2023-07-29T16:46:00;20.30;99.90
41985;DHT22;28319;48.116;10.818;2023-07-29T16:51:04;20.40;99.90
41985;DHT22;28319;48.116;10.818;2023-07-29T16:56:06;20.40;99.90
41985;DHT22;28319;48.116;10.818;2023-07-29T17:01:08;20.30;99.90
41985;DHT22;28319;48.116;10.818;2023-07-29T17:06:11;20.30;99.90
41985;DHT22;28319;48.116;10.818;2023-07-29T17:11:13;20.30;99.90
41985;DHT22;28319;48.116;10.818;2023-07-29T17:16:15;20.20;99.90
41985;DHT22;28319;48.116;10.818;2023-07-29T17:21:19;20.30;99.90
41985;DHT22;28319;48.116;10.818;2023-07-29T17:26:21;20.30;99.90
41985;DHT22;28319;48.116;10.818;2023-07-29T17:31:23;20.30;99.90
41985;DHT22;28319;48.116;10.818;2023-07-29T17:36:27;20.30;99.90
41985;DHT22;28319;48.116;10.818;2023-07-29T17:41:29;20.40;99.90
41985;DHT22;28319;48.116;10.818;2023-07-29T17:46:31;20.50;99.90
41985;DHT22;28319;48.116;10.818;2023-07-29T17:51:35;20.50;99.90
41985;DHT22;28319;48.116;10.818;2023-07-29T17:56:37;20.30;99.90
41985;DHT22;28319;48.116;10.818;2023-07-29T18:01:39;20.40;99.90
41985;DHT22;28319;48.116;10.818;2023-07-29T18:06:44;20.40;99.90
41985;DHT22;28319;48.116;10.818;2023-07-29T18:11:45;20.40;99.90
41985;DHT22;28319;48.116;10.818;2023-07-29T18:16:48;20.50;99.90
41985;DHT22;28319;48.116;10.818;2023-07-29T18:21:51;20.50;99.90
41985;DHT22;28319;48.116;10.818;2023-07-29T18:26:53;20.50;99.90
41985;DHT22;28319;48.116;10.818;2023-07-29T18:31:55;20.50;99.90
41985;DHT22;28319;48.116;10.818;2023-07-29T18:36:59;20.20;99.90
41985;DHT22;28319;48.116;10.818;2023-07-29T18:42:01;20.10;99.90
41985;DHT22;28319;48.116;10.818;2023-07-29T18:47:03;20.10;99.90
41985;DHT22;28319;48.116;10.818;2023-07-29T18:52:08;19.90;99.90
41985;DHT22;28319;48.116;10.818;2023-07-29T18:57:10;19.80;99.90
41985;DHT22;28319;48.116;10.818;2023-07-29T19:02:12;19.70;99.90
41985;DHT22;28319;48.116;10.818;2023-07-29T19:07:16;19.60;99.90
41985;DHT22;28319;48.116;10.818;2023-07-29T19:12:19;19.50;99.90
41985;DHT22;28319;48.116;10.818;2023-07-29T19:17:21;19.50;99.90
41985;DHT22;28319;48.116;10.818;2023-07-29T19:22:25;19.50;99.90
41985;DHT22;28319;48.116;10.818;2023-07-29T19:27:27;19.40;99.90
41985;DHT22;28319;48.116;10.818;2023-07-29T19:32:29;19.40;99.90
41985;DHT22;28319;48.116;10.818;2023-07-29T19:37:32;19.40;99.90
41985;DHT22;28319;48.116;10.818;2023-07-29T19:42:34;19.40;99.90
41985;DHT22;28319;48.116;10.818;2023-07-29T19:47:36;19.40;99.90
41985;DHT22;28319;48.116;10.818;2023-07-29T19:52:39;19.50;99.90
41985;DHT22;28319;48.116;10.818;2023-07-29T19:57:42;19.40;99.90
41985;DHT22;28319;48.116;10.818;2023-07-29T20:02:44;19.30;99.90
41985;DHT22;28319;48.116;10.818;2023-07-29T20:07:47;19.30;99.90
41985;DHT22;28319;48.116;10.818;2023-07-29T20:12:49;19.30;99.90
41985;DHT22;28319;48.116;10.818;2023-07-29T20:17:52;19.20;99.90
41985;DHT22;28319;48.116;10.818;2023-07-29T20:22:55;19.20;99.90
41985;DHT22;28319;48.116;10.818;2023-07-29T20:27:57;19.20;99.90
41985;DHT22;28319;48.116;10.818;2023-07-29T20:32:59;19.20;99.90
41985;DHT22;28319;48.116;10.818;2023-07-29T20:38:04;19.10;99.90
41985;DHT22;28319;48.116;10.818;2023-07-29T20:43:06;19.10;99.90
41985;DHT22;28319;48.116;10.818;2023-07-29T20:48:08;19.10;99.90
41985;DHT22;28319;48.116;10.818;2023-07-29T20:53:12;19.10;99.90
41985;DHT22;28319;48.116;10.818;2023-07-29T20:58:14;19.00;99.90
41985;DHT22;28319;48.116;10.818;2023-07-29T21:03:16;19.00;99.90
41985;DHT22;28319;48.116;10.818;2023-07-29T21:08:19;19.00;99.90
41985;DHT22;28319;48.116;10.818;2023-07-29T21:13:22;19.00;99.90
41985;DHT22;28319;48.116;10.818;2023-07-29T21:18:24;19.00;99.90
41985;DHT22;28319;48.116;10.818;2023-07-29T21:23:28;19.00;99.90
41985;DHT22;28319;48.116;10.818;2023-07-29T21:28:30;19.00;99.90
41985;DHT22;28319;48.116;10.818;2023-07-29T21:33:32;18.90;99.90
41985;DHT22;28319;48.116;10.818;2023-07-29T21:38:35;18.90;99.90
41985;DHT22;28319;48.116;10.818;2023-07-29T21:43:37;18.90;99.90
41985;DHT22;28319;48.116;10.818;2023-07-29T21:48:39;18.80;99.90
41985;DHT22;28319;48.116;10.818;2023-07-29T21:53:43;18.80;99.90
41985;DHT22;28319;48.116;10.818;2023-07-29T21:58:45;18.80;99.90
41985;DHT22;28319;48.116;10.818;2023-07-29T22:03:47;18.70;99.90
41985;DHT22;28319;48.116;10.818;2023-07-29T22:08:51;18.70;99.90
41985;DHT22;28319;48.116;10.818;2023-07-29T22:13:53;18.60;99.90
41985;DHT22;28319;48.116;10.818;2023-07-29T22:18:58;18.60;99.90
41985;DHT22;28319;48.116;10.818;2023-07-29T22:24:01;18.60;99.90
41985;DHT22;28319;48.116;10.818;2023-07-29T22:29:03;18.50;99.90
41985;DHT22;28319;48.116;10.818;2023-07-29T22:34:06;18.50;99.90
41985;DHT22;28319;48.116;10.818;2023-07-29T22:39:09;18.50;99.90
41985;DHT22;28319;48.116;10.818;2023-07-29T22:44:11;18.50;99.90
41985;DHT22;28319;48.116;10.818;2023-07-29T22:49:13;18.60;99.90
41985;DHT22;28319;48.116;10.818;2023-07-29T22:54:17;18.60;99.90
41985;DHT22;28319;48.116;10.818;2023-07-29T22:59:19;18.50;99.90
41985;DHT22;28319;48.116;10.818;2023-07-29T23:04:21;18.50;99.90
41985;DHT22;28319;48.116;10.818;2023-07-29T23:09:25;18.40;99.90
41985;DHT22;28319;48.116;10.818;2023-07-29T23:14:27;18.30;99.90
41985;DHT22;28319;48.116;10.818;2023-07-29T23:19:29;18.30;99.90
41985;DHT22;28319;48.116;10.818;2023-07-29T23:24:32;18.30;99.90
41985;DHT22;28319;48.116;10.818;2023-07-29T23:29:34;18.40;99.90
41985;DHT22;28319;48.116;10.818;2023-07-29T23:34:36;18.30;99.90
41985;DHT22;28319;48.116;10.818;2023-07-29T23:39:40;18.20;99.90
41985;DHT22;28319;48.116;10.818;2023-07-29T23:44:42;18.30;99.90
41985;DHT22;28319;48.116;10.818;2023-07-29T23:49:44;18.20;99.90
41985;DHT22;28319;48.116;10.818;2023-07-29T23:54:48;18.30;99.90
41985;DHT22;28319;48.116;10.818;2023-07-29T23:59:50;18.20;99.90
